Time;durP1;ratioP1;P1;durP2;ratioP2;P2;SDS_P1;SDS_P2;PMS_P1;PMS_P2;Temp;Humidity;BMP_temperature;BMP_pressure;BME280_temperature;BME280_humidity;BME280_pressure;Samples;Min_cycle;Max_cycle;Signal;HPM_P1;HPM_P2
2023/02/27 00:01:02;;;;;;;240.63;33.05;;;;;;;;;;5006348;28;20042;-46
2023/02/27 00:03:29;;;;;;;225.18;31.02;;;;;;;;;;5003151;28;20029;-45
2023/02/27 00:05:57;;;;;;;244.05;33.42;;;;;;;;;;5002227;28;20026;-44
2023/02/27 00:08:24;;;;;;;233.80;35.45;;;;;;;;;;5000228;28;20022;-44
2023/02/27 00:10:51;;;;;;;231.55;34.25;;;;;;;;;;4993702;28;20034;-46
2023/02/27 00:13:18;;;;;;;255.13;35.60;;;;;;;;;;4991158;28;20038;-45
2023/02/27 00:15:51;;;;;;;278.42;39.28;;;;;;;;;;4994529;28;20045;-46
2023/02/27 00:18:18;;;;;;;327.30;43.67;;;;;;;;;;5000857;28;20033;-47
2023/02/27 00:20:45;;;;;;;306.02;42.28;;;;;;;;;;5000148;28;20027;-44
2023/02/27 00:23:14;;;;;;;286.67;38.00;;;;;;;;;;5005407;28;20061;-44
2023/02/27 00:25:41;;;;;;;249.93;35.47;;;;;;;;;;5007980;28;20042;-44
2023/02/27 00:28:09;;;;;;;248.95;35.70;;;;;;;;;;5009333;28;20038;-44
2023/02/27 00:30:36;;;;;;;238.60;35.92;;;;;;;;;;5010624;28;20489;-44
2023/02/27 00:33:03;;;;;;;219.30;34.15;;;;;;;;;;5006894;28;20029;-43
2023/02/27 00:35:30;;;;;;;236.77;34.40;;;;;;;;;;5008508;28;20092;-47
2023/02/27 00:37:57;;;;;;;280.45;40.60;;;;;;;;;;5012086;28;20136;-47
2023/02/27 00:40:25;;;;;;;277.10;38.17;;;;;;;;;;5011160;28;20026;-46
2023/02/27 00:42:52;;;;;;;289.83;42.50;;;;;;;;;;5010462;28;20018;-46
2023/02/27 00:45:20;;;;;;;312.67;42.58;;;;;;;;;;5010158;28;20444;-46
2023/02/27 00:47:47;;;;;;;319.95;42.75;;;;;;;;;;5011524;28;20041;-45
2023/02/27 00:50:14;;;;;;;319.42;43.55;;;;;;;;;;5011241;28;20038;-46
2023/02/27 00:52:41;;;;;;;296.67;41.67;;;;;;;;;;5011566;28;20037;-47
2023/02/27 00:55:08;;;;;;;256.90;39.90;;;;;;;;;;5011715;28;20021;-46
2023/02/27 00:57:35;;;;;;;267.45;39.20;;;;;;;;;;5011534;28;20091;-47
2023/02/27 01:00:04;;;;;;;263.98;39.65;;;;;;;;;;5011679;28;20079;-46
2023/02/27 01:02:31;;;;;;;264.73;42.05;;;;;;;;;;5011282;28;20036;-47
2023/02/27 01:04:58;;;;;;;289.92;43.88;;;;;;;;;;5010749;28;20495;-46
2023/02/27 01:07:25;;;;;;;304.88;48.58;;;;;;;;;;5011333;28;20073;-47
2023/02/27 01:09:52;;;;;;;331.83;52.15;;;;;;;;;;5010978;28;20037;-46
2023/02/27 01:12:19;;;;;;;359.60;55.55;;;;;;;;;;5011418;28;20028;-46
2023/02/27 01:14:46;;;;;;;352.45;55.03;;;;;;;;;;5011200;28;20105;-46
2023/02/27 01:17:13;;;;;;;371.95;57.85;;;;;;;;;;5010496;28;20073;-46
2023/02/27 01:19:40;;;;;;;365.00;57.83;;;;;;;;;;5010383;28;20093;-47
2023/02/27 01:22:07;;;;;;;444.17;65.97;;;;;;;;;;5010114;28;20026;-47
2023/02/27 01:24:36;;;;;;;451.45;67.93;;;;;;;;;;5009928;28;20026;-46
2023/02/27 01:27:03;;;;;;;412.48;60.83;;;;;;;;;;5009686;28;20032;-46
2023/02/27 01:29:30;;;;;;;326.52;56.38;;;;;;;;;;5008963;28;20026;-47
2023/02/27 01:31:57;;;;;;;331.17;50.92;;;;;;;;;;5009518;28;20030;-46
2023/02/27 01:34:24;;;;;;;311.52;52.50;;;;;;;;;;5009919;28;20093;-44
2023/02/27 01:36:51;;;;;;;317.33;47.67;;;;;;;;;;5009419;28;20099;-47
2023/02/27 01:39:19;;;;;;;330.40;50.97;;;;;;;;;;5010938;28;20479;-46
2023/02/27 01:41:48;;;;;;;287.70;47.58;;;;;;;;;;5010927;28;20142;-46
2023/02/27 01:44:15;;;;;;;278.27;43.03;;;;;;;;;;5010940;28;20029;-46
2023/02/27 01:46:42;;;;;;;301.10;46.45;;;;;;;;;;5010811;28;20113;-46
2023/02/27 01:49:12;;;;;;;277.10;46.60;;;;;;;;;;5010927;28;20036;-44
2023/02/27 01:51:46;;;;;;;298.38;47.28;;;;;;;;;;5009994;28;20044;-46
2023/02/27 01:54:14;;;;;;;357.85;54.60;;;;;;;;;;5009836;28;20022;-45
2023/02/27 01:56:41;;;;;;;407.02;57.65;;;;;;;;;;5009294;28;20048;-47
2023/02/27 01:59:10;;;;;;;401.17;58.05;;;;;;;;;;5009982;28;20052;-46
2023/02/27 02:01:38;;;;;;;396.80;56.92;;;;;;;;;;5009974;28;20034;-45
2023/02/27 02:04:05;;;;;;;382.83;55.03;;;;;;;;;;5016310;28;20621;-45
2023/02/27 02:06:34;;;;;;;371.80;56.15;;;;;;;;;;4997267;28;20045;-46
2023/02/27 02:09:01;;;;;;;368.75;57.67;;;;;;;;;;5009555;28;20041;-46
2023/02/27 02:11:28;;;;;;;386.95;58.42;;;;;;;;;;5010293;28;20030;-46
2023/02/27 02:13:57;;;;;;;434.77;65.72;;;;;;;;;;5002994;28;20072;-45
2023/02/27 02:16:34;;;;;;;342.88;56.25;;;;;;;;;;5029158;28;20430;-44
2023/02/27 02:19:01;;;;;;;378.48;58.65;;;;;;;;;;5016580;28;20837;-42
2023/02/27 02:21:46;;;;;;;343.15;54.70;;;;;;;;;;5006470;28;20153;-43
2023/02/27 02:24:25;;;;;;;326.65;53.95;;;;;;;;;;5007037;28;20022;-43
2023/02/27 02:27:02;;;;;;;308.13;52.35;;;;;;;;;;5007289;28;20049;-43
2023/02/27 02:30:01;;;;;;;328.08;50.95;;;;;;;;;;5006501;28;20021;-42
2023/02/27 02:32:31;;;;;;;317.85;50.67;;;;;;;;;;4997262;28;20125;-43
2023/02/27 02:35:16;;;;;;;312.30;48.60;;;;;;;;;;4983315;28;20030;-43
2023/02/27 02:37:43;;;;;;;284.90;48.08;;;;;;;;;;5008399;28;20054;-43
2023/02/27 02:40:10;;;;;;;272.08;47.85;;;;;;;;;;5006589;28;20140;-43
2023/02/27 02:42:57;;;;;;;247.23;46.95;;;;;;;;;;5011332;28;20484;-43
2023/02/27 02:45:27;;;;;;;284.13;44.78;;;;;;;;;;4989958;28;21547;-42
2023/02/27 02:48:00;;;;;;;261.98;47.95;;;;;;;;;;5010883;28;20388;-42
2023/02/27 02:50:42;;;;;;;250.75;44.13;;;;;;;;;;5012637;28;20025;-43
2023/02/27 02:53:09;;;;;;;255.57;44.17;;;;;;;;;;5012553;28;20014;-42
2023/02/27 02:55:52;;;;;;;251.80;45.33;;;;;;;;;;5013912;28;20133;-42
2023/02/27 02:58:58;;;;;;;250.48;43.88;;;;;;;;;;5014095;28;20022;-42
2023/02/27 03:01:57;;;;;;;220.30;39.63;;;;;;;;;;4972481;28;20112;-42
2023/02/27 03:04:56;;;;;;;209.45;38.78;;;;;;;;;;4941132;28;20046;-41
2023/02/27 03:07:29;;;;;;;196.75;35.38;;;;;;;;;;4969101;28;20038;-42
2023/02/27 03:10:05;;;;;;;208.18;37.85;;;;;;;;;;5013834;28;20033;-42
2023/02/27 03:12:33;;;;;;;221.60;39.15;;;;;;;;;;5013798;28;20093;-42
2023/02/27 03:15:06;;;;;;;207.85;39.97;;;;;;;;;;5012969;28;20037;-42
2023/02/27 03:17:51;;;;;;;208.43;39.55;;;;;;;;;;5012205;28;20490;-42
2023/02/27 03:20:38;;;;;;;201.70;38.17;;;;;;;;;;5012152;28;20029;-42
2023/02/27 03:23:08;;;;;;;195.13;37.80;;;;;;;;;;5009852;28;20022;-43
2023/02/27 03:25:36;;;;;;;206.30;37.70;;;;;;;;;;5013399;28;20072;-43
2023/02/27 03:28:05;;;;;;;186.48;37.70;;;;;;;;;;5013370;28;20027;-43
2023/02/27 03:31:04;;;;;;;163.15;35.38;;;;;;;;;;5013382;28;20092;-43
2023/02/27 03:33:34;;;;;;;186.05;36.47;;;;;;;;;;5005162;28;20539;-43
2023/02/27 03:36:05;;;;;;;184.35;34.15;;;;;;;;;;5012974;28;20029;-45
2023/02/27 03:38:41;;;;;;;180.07;35.80;;;;;;;;;;5013350;28;20510;-43
2023/02/27 03:41:13;;;;;;;161.10;33.42;;;;;;;;;;5013143;28;20025;-43
2023/02/27 03:43:40;;;;;;;175.15;35.00;;;;;;;;;;4995564;28;20061;-43
2023/02/27 03:46:10;;;;;;;177.23;35.78;;;;;;;;;;5013134;28;20036;-43
2023/02/27 03:48:37;;;;;;;170.98;33.63;;;;;;;;;;5013178;28;20048;-43
2023/02/27 03:51:04;;;;;;;152.52;31.33;;;;;;;;;;5013119;28;20022;-43
2023/02/27 03:53:31;;;;;;;146.25;31.95;;;;;;;;;;5012187;28;20022;-43
2023/02/27 03:56:00;;;;;;;156.70;31.45;;;;;;;;;;4995090;28;20406;-43
2023/02/27 03:58:27;;;;;;;147.02;31.33;;;;;;;;;;5012992;28;20080;-43
2023/02/27 04:00:54;;;;;;;160.05;32.83;;;;;;;;;;5012973;28;20029;-43
2023/02/27 04:03:21;;;;;;;141.75;30.77;;;;;;;;;;5012884;28;20032;-43
2023/02/27 04:05:49;;;;;;;139.00;31.02;;;;;;;;;;5012658;28;20045;-43
2023/02/27 04:08:19;;;;;;;146.35;30.77;;;;;;;;;;5012548;28;20026;-43
2023/02/27 04:10:46;;;;;;;131.23;30.02;;;;;;;;;;5012792;28;20018;-43
2023/02/27 04:13:25;;;;;;;137.63;31.38;;;;;;;;;;5012751;28;20054;-44
2023/02/27 04:15:59;;;;;;;139.07;28.83;;;;;;;;;;5012452;28;20087;-43
2023/02/27 04:18:36;;;;;;;143.77;31.10;;;;;;;;;;5012322;28;20088;-43
2023/02/27 04:21:21;;;;;;;131.15;29.55;;;;;;;;;;5012620;28;20084;-43
2023/02/27 04:24:00;;;;;;;121.60;28.13;;;;;;;;;;5012546;28;20029;-43
2023/02/27 04:26:32;;;;;;;125.65;28.27;;;;;;;;;;5012210;28;20034;-43
2023/02/27 04:29:09;;;;;;;121.50;26.63;;;;;;;;;;5012542;28;20026;-43
2023/02/27 04:31:36;;;;;;;126.25;28.10;;;;;;;;;;5012212;28;20026;-43
2023/02/27 04:34:09;;;;;;;112.80;26.15;;;;;;;;;;5012053;28;20079;-43
2023/02/27 04:36:42;;;;;;;110.30;25.38;;;;;;;;;;5011909;28;20555;-43
2023/02/27 04:39:16;;;;;;;121.07;27.27;;;;;;;;;;5012130;28;20022;-43
2023/02/27 04:41:47;;;;;;;112.90;27.13;;;;;;;;;;5011926;28;20561;-43
2023/02/27 04:44:14;;;;;;;113.18;25.08;;;;;;;;;;5012076;28;20049;-43
2023/02/27 04:46:43;;;;;;;122.47;26.90;;;;;;;;;;5011839;28;20440;-43
2023/02/27 04:49:16;;;;;;;107.47;25.75;;;;;;;;;;5011986;28;20032;-43
2023/02/27 04:51:47;;;;;;;107.75;24.70;;;;;;;;;;5012044;28;20069;-45
2023/02/27 04:54:16;;;;;;;103.88;25.83;;;;;;;;;;5010680;28;20037;-43
2023/02/27 04:56:49;;;;;;;103.15;24.27;;;;;;;;;;5011726;28;20029;-43
2023/02/27 04:59:21;;;;;;;97.45;24.42;;;;;;;;;;5011827;28;20030;-44
2023/02/27 05:01:57;;;;;;;106.22;23.50;;;;;;;;;;5011854;28;20022;-43
2023/02/27 05:04:27;;;;;;;102.85;23.90;;;;;;;;;;5011654;28;20484;-42
2023/02/27 05:06:55;;;;;;;103.32;24.13;;;;;;;;;;5011705;28;20037;-42
2023/02/27 05:09:37;;;;;;;90.63;23.20;;;;;;;;;;5011614;28;20026;-42
2023/02/27 05:12:11;;;;;;;94.15;23.15;;;;;;;;;;5011753;28;20427;-42
2023/02/27 05:14:44;;;;;;;91.07;24.10;;;;;;;;;;5011743;28;20751;-42
2023/02/27 05:17:31;;;;;;;93.45;24.63;;;;;;;;;;5011397;28;20173;-42
2023/02/27 05:19:59;;;;;;;105.30;23.33;;;;;;;;;;5011659;28;20056;-42
2023/02/27 05:22:28;;;;;;;88.53;21.00;;;;;;;;;;5011500;28;20785;-42
2023/02/27 05:24:55;;;;;;;94.80;22.40;;;;;;;;;;5011563;28;20030;-42
2023/02/27 05:27:31;;;;;;;90.63;22.90;;;;;;;;;;5011431;28;20110;-41
2023/02/27 05:30:07;;;;;;;88.68;22.92;;;;;;;;;;5011496;28;20028;-42
2023/02/27 05:32:38;;;;;;;81.55;21.73;;;;;;;;;;5011450;28;20025;-42
2023/02/27 05:35:14;;;;;;;84.85;21.58;;;;;;;;;;5011299;28;20068;-42
2023/02/27 05:37:47;;;;;;;96.90;21.30;;;;;;;;;;5011070;28;20054;-42
2023/02/27 05:40:17;;;;;;;80.80;20.33;;;;;;;;;;5011331;28;20029;-42
2023/02/27 05:42:46;;;;;;;81.28;20.67;;;;;;;;;;5011376;28;20423;-42
2023/02/27 05:45:15;;;;;;;83.57;20.27;;;;;;;;;;5011067;28;20026;-42
2023/02/27 05:47:45;;;;;;;85.40;21.02;;;;;;;;;;5011348;28;20018;-42
2023/02/27 05:50:23;;;;;;;85.63;21.00;;;;;;;;;;5011266;28;20021;-42
2023/02/27 05:52:51;;;;;;;82.00;20.90;;;;;;;;;;5011202;28;20141;-42
2023/02/27 05:55:30;;;;;;;79.03;20.30;;;;;;;;;;5011091;28;20033;-41
2023/02/27 05:57:59;;;;;;;82.57;19.70;;;;;;;;;;5011187;28;20503;-42
2023/02/27 06:00:38;;;;;;;77.22;19.45;;;;;;;;;;5011031;28;20026;-42
2023/02/27 06:03:05;;;;;;;70.40;18.80;;;;;;;;;;5010218;28;20038;-42
2023/02/27 06:05:32;;;;;;;79.47;18.95;;;;;;;;;;5011160;28;20037;-42
2023/02/27 06:07:59;;;;;;;70.80;18.13;;;;;;;;;;5010968;28;20087;-42
2023/02/27 06:10:26;;;;;;;78.15;19.50;;;;;;;;;;5011010;28;20018;-42
2023/02/27 06:12:53;;;;;;;74.30;18.38;;;;;;;;;;5010860;28;20038;-42
2023/02/27 06:15:21;;;;;;;65.70;18.60;;;;;;;;;;5010729;28;20033;-42
2023/02/27 06:17:48;;;;;;;64.13;18.15;;;;;;;;;;5014464;28;20091;-42
2023/02/27 06:20:15;;;;;;;68.47;17.50;;;;;;;;;;5014710;28;20456;-42
2023/02/27 06:22:42;;;;;;;68.68;18.13;;;;;;;;;;5014786;28;20034;-42
2023/02/27 06:25:10;;;;;;;73.82;17.65;;;;;;;;;;5014410;28;20033;-42
2023/02/27 06:27:37;;;;;;;69.38;17.60;;;;;;;;;;5014740;28;20108;-42
2023/02/27 06:30:06;;;;;;;63.75;17.30;;;;;;;;;;5014653;28;20022;-42
2023/02/27 06:32:33;;;;;;;59.55;15.70;;;;;;;;;;5191129;23;20061;-38
2023/02/27 06:35:00;;;;;;;69.15;16.38;;;;;;;;;;5050748;28;20485;-38
2023/02/27 06:37:27;;;;;;;59.83;16.55;;;;;;;;;;5074271;28;20127;-38
2023/02/27 06:39:54;;;;;;;59.78;16.30;;;;;;;;;;5074224;28;20024;-39
2023/02/27 06:42:21;;;;;;;71.47;17.02;;;;;;;;;;5074117;28;20024;-38
2023/02/27 06:44:48;;;;;;;60.60;16.95;;;;;;;;;;5074146;28;20063;-38
2023/02/27 06:47:15;;;;;;;65.97;16.23;;;;;;;;;;5074131;28;20032;-38
2023/02/27 06:49:42;;;;;;;56.88;16.35;;;;;;;;;;5074008;28;20064;-38
2023/02/27 06:52:09;;;;;;;50.08;15.00;;;;;;;;;;5073966;28;20024;-38
2023/02/27 06:54:36;;;;;;;63.00;15.35;;;;;;;;;;5073966;28;20025;-38
2023/02/27 06:57:04;;;;;;;56.85;15.18;;;;;;;;;;5073814;28;20401;-38
2023/02/27 06:59:31;;;;;;;59.15;14.98;;;;;;;;;;5073892;28;20024;-38
2023/02/27 07:01:59;;;;;;;52.30;15.52;;;;;;;;;;5073498;28;20029;-38
2023/02/27 07:04:26;;;;;;;56.08;15.60;;;;;;;;;;5073571;28;20490;-37
2023/02/27 07:06:53;;;;;;;55.70;16.23;;;;;;;;;;5073750;28;20641;-38
2023/02/27 07:09:21;;;;;;;54.15;14.90;;;;;;;;;;5073886;28;20031;-38
2023/02/27 07:11:49;;;;;;;50.47;14.60;;;;;;;;;;5073479;28;20033;-38
2023/02/27 07:14:16;;;;;;;54.60;15.18;;;;;;;;;;5073453;28;20148;-38
2023/02/27 07:16:44;;;;;;;54.53;14.05;;;;;;;;;;5073535;28;20145;-37
2023/02/27 07:19:11;;;;;;;45.70;13.25;;;;;;;;;;5073584;28;20025;-38
2023/02/27 07:21:38;;;;;;;52.40;13.65;;;;;;;;;;5073388;28;20052;-38
2023/02/27 07:24:05;;;;;;;54.90;14.48;;;;;;;;;;5073772;28;20029;-38
2023/02/27 07:26:32;;;;;;;47.60;14.13;;;;;;;;;;5073429;28;20024;-38
2023/02/27 07:28:59;;;;;;;46.90;13.35;;;;;;;;;;5072206;28;20028;-38
2023/02/27 07:31:26;;;;;;;47.38;12.88;;;;;;;;;;5073041;28;20024;-38
2023/02/27 07:33:53;;;;;;;52.45;14.18;;;;;;;;;;5073294;28;20074;-38
2023/02/27 07:36:20;;;;;;;37.50;12.20;;;;;;;;;;5073183;28;20039;-38
2023/02/27 07:38:47;;;;;;;50.47;13.85;;;;;;;;;;5073123;28;20547;-38
2023/02/27 07:41:14;;;;;;;40.83;12.48;;;;;;;;;;5073112;28;20059;-38
2023/02/27 07:43:41;;;;;;;37.80;11.85;;;;;;;;;;5073139;28;20020;-38
2023/02/27 07:46:08;;;;;;;44.55;11.73;;;;;;;;;;5073009;28;20029;-38
2023/02/27 07:48:35;;;;;;;40.78;12.13;;;;;;;;;;5072959;28;20028;-38
2023/02/27 07:51:02;;;;;;;47.63;13.90;;;;;;;;;;5054758;28;20433;-38
2023/02/27 07:53:29;;;;;;;44.38;12.27;;;;;;;;;;5072960;28;20120;-38
2023/02/27 07:55:56;;;;;;;40.08;12.40;;;;;;;;;;5072768;28;20028;-38
2023/02/27 07:58:22;;;;;;;42.00;12.55;;;;;;;;;;5072818;28;20028;-38
2023/02/27 08:00:49;;;;;;;37.80;10.90;;;;;;;;;;5072738;28;20033;-38
2023/02/27 08:03:16;;;;;;;38.00;11.85;;;;;;;;;;5072636;28;20024;-38
2023/02/27 08:05:43;;;;;;;37.20;11.20;;;;;;;;;;5072663;28;20077;-38
2023/02/27 08:08:10;;;;;;;33.15;10.80;;;;;;;;;;5072649;28;20489;-38
2023/02/27 08:10:37;;;;;;;40.33;11.63;;;;;;;;;;5072607;28;20052;-38
2023/02/27 08:13:04;;;;;;;42.45;11.48;;;;;;;;;;5072391;28;20085;-38
2023/02/27 08:15:31;;;;;;;49.40;12.13;;;;;;;;;;5072451;28;20032;-38
2023/02/27 08:17:58;;;;;;;38.00;11.00;;;;;;;;;;5072417;28;20031;-38
2023/02/27 08:20:26;;;;;;;40.00;10.45;;;;;;;;;;5072380;28;20016;-38
2023/02/27 08:22:53;;;;;;;40.05;10.75;;;;;;;;;;5072048;28;20039;-38
2023/02/27 08:25:20;;;;;;;39.03;10.13;;;;;;;;;;5072229;28;20020;-38
2023/02/27 08:27:47;;;;;;;37.42;11.07;;;;;;;;;;5072266;28;20025;-38
2023/02/27 08:30:15;;;;;;;37.08;11.20;;;;;;;;;;5072190;28;20020;-38
2023/02/27 08:32:44;;;;;;;34.08;9.93;;;;;;;;;;5053901;28;20062;-38
2023/02/27 08:35:11;;;;;;;33.35;10.18;;;;;;;;;;5071812;28;20147;-37
2023/02/27 08:37:38;;;;;;;33.83;10.38;;;;;;;;;;5072004;28;20082;-38
2023/02/27 08:40:06;;;;;;;35.65;9.70;;;;;;;;;;5071739;28;20074;-38
2023/02/27 08:42:33;;;;;;;33.95;9.25;;;;;;;;;;5071675;28;20025;-38
2023/02/27 08:45:00;;;;;;;29.13;9.20;;;;;;;;;;5071925;28;20565;-38
2023/02/27 08:47:27;;;;;;;27.70;9.25;;;;;;;;;;5071840;28;20035;-38
2023/02/27 08:49:55;;;;;;;29.30;9.52;;;;;;;;;;5071750;28;20027;-38
2023/02/27 08:52:22;;;;;;;36.00;9.55;;;;;;;;;;5071518;28;20095;-38
2023/02/27 08:54:49;;;;;;;37.60;10.20;;;;;;;;;;5071778;28;20456;-38
2023/02/27 08:57:16;;;;;;;33.72;10.13;;;;;;;;;;5071335;28;20722;-38
2023/02/27 08:59:43;;;;;;;25.52;9.40;;;;;;;;;;5071587;28;20025;-38
2023/02/27 09:02:10;;;;;;;30.95;9.18;;;;;;;;;;5071481;28;20397;-38
2023/02/27 09:04:37;;;;;;;27.60;9.07;;;;;;;;;;5053535;28;20052;-38
2023/02/27 09:07:04;;;;;;;25.60;8.85;;;;;;;;;;5071438;28;20024;-38
2023/02/27 09:09:31;;;;;;;29.15;8.68;;;;;;;;;;5071709;28;20390;-38
2023/02/27 09:11:58;;;;;;;30.38;9.20;;;;;;;;;;5071364;28;20417;-38
2023/02/27 09:14:25;;;;;;;31.63;8.50;;;;;;;;;;5071328;28;20036;-38
2023/02/27 09:16:52;;;;;;;27.75;8.45;;;;;;;;;;5071310;28;20556;-38
2023/02/27 09:19:19;;;;;;;24.30;8.18;;;;;;;;;;5071264;28;20074;-38
2023/02/27 09:21:46;;;;;;;25.92;8.15;;;;;;;;;;5071141;28;20490;-39
2023/02/27 09:24:13;;;;;;;27.42;8.07;;;;;;;;;;5071228;28;20390;-38
2023/02/27 09:26:40;;;;;;;29.58;7.93;;;;;;;;;;5071123;28;20032;-38
2023/02/27 09:29:07;;;;;;;30.10;9.45;;;;;;;;;;5071202;28;20095;-38
2023/02/27 09:31:34;;;;;;;27.42;8.57;;;;;;;;;;5070889;28;21063;-38
2023/02/27 09:34:00;;;;;;;28.83;7.78;;;;;;;;;;5071172;28;20025;-38
2023/02/27 09:36:28;;;;;;;28.15;7.85;;;;;;;;;;5071053;28;20100;-38
2023/02/27 09:38:55;;;;;;;29.10;7.32;;;;;;;;;;5071095;28;20054;-38
2023/02/27 09:41:38;;;;;;;25.98;8.05;;;;;;;;;;5071005;28;20029;-38
2023/02/27 09:44:06;;;;;;;26.27;7.55;;;;;;;;;;5070972;28;20035;-38
2023/02/27 09:46:33;;;;;;;23.80;7.03;;;;;;;;;;5071026;28;20025;-38
2023/02/27 09:49:02;;;;;;;26.77;6.95;;;;;;;;;;5070942;28;20028;-38
2023/02/27 09:51:30;;;;;;;24.05;7.85;;;;;;;;;;5070043;28;20466;-38
2023/02/27 09:54:01;;;;;;;24.60;7.10;;;;;;;;;;5070899;28;20020;-39
2023/02/27 09:56:28;;;;;;;25.90;7.50;;;;;;;;;;5070926;28;20032;-38
2023/02/27 09:58:55;;;;;;;25.90;8.15;;;;;;;;;;5070892;28;20078;-38
2023/02/27 10:01:31;;;;;;;23.17;6.70;;;;;;;;;;5070733;28;20024;-38
2023/02/27 10:03:57;;;;;;;23.10;7.18;;;;;;;;;;5070223;28;20101;-41
2023/02/27 10:06:31;;;;;;;25.88;6.82;;;;;;;;;;5032919;28;20444;-38
2023/02/27 10:09:17;;;;;;;23.90;7.57;;;;;;;;;;5037485;28;20549;-38
2023/02/27 10:11:44;;;;;;;28.92;7.53;;;;;;;;;;5022509;28;20051;-41
2023/02/27 10:14:25;;;;;;;24.75;6.97;;;;;;;;;;5044258;28;20029;-41
2023/02/27 10:16:53;;;;;;;26.42;7.43;;;;;;;;;;5036315;28;20037;-40
2023/02/27 10:19:26;;;;;;;30.98;7.50;;;;;;;;;;5040714;28;20156;-41
2023/02/27 10:21:54;;;;;;;26.42;6.80;;;;;;;;;;5039628;28;20033;-39
2023/02/27 10:24:30;;;;;;;32.08;8.35;;;;;;;;;;5041030;28;20017;-39
2023/02/27 10:26:58;;;;;;;38.67;8.63;;;;;;;;;;5049623;28;20029;-42
2023/02/27 10:29:33;;;;;;;27.75;8.05;;;;;;;;;;5031373;28;20021;-38
2023/02/27 10:32:00;;;;;;;38.85;10.50;;;;;;;;;;5046896;28;20053;-39
2023/02/27 10:34:28;;;;;;;55.85;13.52;;;;;;;;;;5048571;28;20044;-42
2023/02/27 10:36:55;;;;;;;51.55;14.88;;;;;;;;;;5046518;28;20045;-41
2023/02/27 10:39:23;;;;;;;54.95;14.52;;;;;;;;;;5049843;28;20029;-41
2023/02/27 10:41:50;;;;;;;65.38;15.30;;;;;;;;;;5040906;28;20029;-41
2023/02/27 10:44:17;;;;;;;56.65;15.25;;;;;;;;;;5049657;28;20055;-42
2023/02/27 10:46:45;;;;;;;59.28;14.63;;;;;;;;;;5047653;28;20021;-39
2023/02/27 10:49:17;;;;;;;71.57;16.17;;;;;;;;;;5049592;28;20363;-39
2023/02/27 10:51:45;;;;;;;66.28;16.50;;;;;;;;;;5048412;28;20532;-41
2023/02/27 10:54:15;;;;;;;73.00;17.50;;;;;;;;;;5049454;28;20048;-39
2023/02/27 10:56:44;;;;;;;79.35;19.15;;;;;;;;;;5047811;28;20394;-39
2023/02/27 10:59:22;;;;;;;90.68;18.95;;;;;;;;;;5049438;28;20425;-40
2023/02/27 11:01:57;;;;;;;78.15;19.75;;;;;;;;;;5046332;28;20032;-40
2023/02/27 11:04:44;;;;;;;92.85;20.08;;;;;;;;;;5053018;28;20016;-42
2023/02/27 11:07:13;;;;;;;86.43;18.98;;;;;;;;;;4999517;28;20041;-39
2023/02/27 11:09:40;;;;;;;96.15;21.33;;;;;;;;;;5052977;28;20632;-39
2023/02/27 11:12:30;;;;;;;101.38;21.25;;;;;;;;;;5025854;28;20056;-41
2023/02/27 11:14:59;;;;;;;77.97;19.50;;;;;;;;;;4997159;28;20095;-40
2023/02/27 11:17:34;;;;;;;82.88;19.55;;;;;;;;;;5051046;28;20048;-42
2023/02/27 11:20:04;;;;;;;82.00;20.42;;;;;;;;;;5033462;28;20486;-42
2023/02/27 11:22:32;;;;;;;95.13;21.27;;;;;;;;;;5031894;28;20030;-41
2023/02/27 11:25:17;;;;;;;93.13;20.13;;;;;;;;;;5033309;28;20036;-39
2023/02/27 11:27:45;;;;;;;89.63;20.65;;;;;;;;;;5033542;28;20033;-39
2023/02/27 11:30:30;;;;;;;79.50;19.88;;;;;;;;;;5052262;28;20036;-39
2023/02/27 11:32:58;;;;;;;77.97;20.75;;;;;;;;;;5052634;28;20052;-39
2023/02/27 11:35:34;;;;;;;87.78;21.55;;;;;;;;;;5053015;28;20029;-40
2023/02/27 11:38:23;;;;;;;87.05;21.45;;;;;;;;;;5052766;28;20025;-39
2023/02/27 11:40:52;;;;;;;84.50;20.60;;;;;;;;;;5050535;28;20705;-42
2023/02/27 11:43:26;;;;;;;85.53;21.27;;;;;;;;;;5053006;28;20033;-41
2023/02/27 11:45:59;;;;;;;90.80;20.77;;;;;;;;;;5052220;28;20099;-41
2023/02/27 11:48:30;;;;;;;82.47;20.95;;;;;;;;;;5051539;28;20029;-42
2023/02/27 11:50:57;;;;;;;94.30;20.70;;;;;;;;;;5052642;28;20045;-42
2023/02/27 11:53:43;;;;;;;89.88;20.75;;;;;;;;;;5049753;28;20037;-44
2023/02/27 11:56:21;;;;;;;94.38;19.50;;;;;;;;;;5051027;28;20083;-39
2023/02/27 11:58:53;;;;;;;89.93;19.50;;;;;;;;;;5052578;28;20063;-39
2023/02/27 12:01:19;;;;;;;;;;;;;;;;;;5053004;28;20017;-39
2023/02/27 12:03:49;;;;;;;75.65;19.50;;;;;;;;;;5052644;28;19916;-39
2023/02/27 12:06:21;;;;;;;86.05;18.20;;;;;;;;;;5052594;28;20036;-39
2023/02/27 12:08:50;;;;;;;80.70;19.10;;;;;;;;;;5052607;28;20055;-39
2023/02/27 12:11:55;;;;;;;67.00;17.17;;;;;;;;;;5052475;28;20045;-39
2023/02/27 12:14:26;;;;;;;78.43;19.27;;;;;;;;;;4990168;28;20052;-39
2023/02/27 12:16:55;;;;;;;67.25;17.38;;;;;;;;;;4990659;28;20038;-39
2023/02/27 12:19:42;;;;;;;72.95;18.30;;;;;;;;;;5022959;28;20037;-39
2023/02/27 12:22:15;;;;;;;66.35;17.27;;;;;;;;;;5052172;28;20502;-39
2023/02/27 12:24:49;;;;;;;58.17;17.17;;;;;;;;;;5052310;28;20025;-39
2023/02/27 12:27:22;;;;;;;64.70;16.17;;;;;;;;;;5052105;28;20048;-42
2023/02/27 12:29:58;;;;;;;61.03;15.55;;;;;;;;;;5052256;28;20021;-42
2023/02/27 12:32:32;;;;;;;66.63;16.55;;;;;;;;;;5051810;28;20484;-42
2023/02/27 12:35:01;;;;;;;65.18;15.50;;;;;;;;;;5052137;28;20048;-42
2023/02/27 12:37:29;;;;;;;62.40;15.77;;;;;;;;;;5051983;28;20474;-42
2023/02/27 12:39:59;;;;;;;59.67;15.70;;;;;;;;;;5052020;28;20017;-42
2023/02/27 12:42:45;;;;;;;54.70;15.13;;;;;;;;;;5051888;28;20025;-42
2023/02/27 12:45:41;;;;;;;55.63;13.88;;;;;;;;;;5051938;28;20021;-42
2023/02/27 12:48:37;;;;;;;63.13;14.63;;;;;;;;;;5050528;28;20017;-42
2023/02/27 12:51:22;;;;;;;54.25;14.13;;;;;;;;;;5039043;28;20159;-42
2023/02/27 12:53:49;;;;;;;52.00;13.63;;;;;;;;;;5051827;28;20032;-42
2023/02/27 12:56:19;;;;;;;56.08;14.05;;;;;;;;;;5051597;28;20382;-42
2023/02/27 12:59:05;;;;;;;48.58;12.57;;;;;;;;;;5051670;28;20064;-42
2023/02/27 13:01:44;;;;;;;51.05;13.43;;;;;;;;;;5051398;28;20035;-42
2023/02/27 13:04:11;;;;;;;53.97;13.80;;;;;;;;;;5051630;28;20627;-42
2023/02/27 13:06:38;;;;;;;51.28;13.07;;;;;;;;;;5051595;28;20032;-43
2023/02/27 13:09:08;;;;;;;46.90;13.10;;;;;;;;;;5051473;28;20038;-42
2023/02/27 13:11:38;;;;;;;51.20;12.43;;;;;;;;;;5051347;28;20041;-42
2023/02/27 13:14:17;;;;;;;45.60;12.73;;;;;;;;;;5050982;28;20063;-42
2023/02/27 13:16:44;;;;;;;45.10;12.05;;;;;;;;;;5051227;28;20025;-42
2023/02/27 13:19:11;;;;;;;53.50;12.43;;;;;;;;;;5051311;28;20490;-42
2023/02/27 13:21:44;;;;;;;43.75;11.70;;;;;;;;;;5049810;28;20390;-42
2023/02/27 13:24:28;;;;;;;44.08;11.25;;;;;;;;;;5049789;28;20385;-43
2023/02/27 13:27:04;;;;;;;40.17;11.45;;;;;;;;;;5050315;28;20033;-42
2023/02/27 13:29:39;;;;;;;38.47;10.80;;;;;;;;;;5051190;28;20041;-42
2023/02/27 13:32:32;;;;;;;37.25;10.90;;;;;;;;;;5050790;28;20049;-42
2023/02/27 13:35:23;;;;;;;37.72;11.43;;;;;;;;;;5027818;28;20037;-42
2023/02/27 13:37:51;;;;;;;39.63;10.98;;;;;;;;;;5043506;28;20060;-42
2023/02/27 13:40:38;;;;;;;38.60;10.60;;;;;;;;;;5051107;28;20028;-42
2023/02/27 13:43:05;;;;;;;41.70;11.02;;;;;;;;;;5050894;28;20036;-42
2023/02/27 13:45:52;;;;;;;40.30;10.25;;;;;;;;;;5050972;28;20029;-42
2023/02/27 13:48:34;;;;;;;38.97;10.63;;;;;;;;;;5050940;28;20055;-42
2023/02/27 13:51:01;;;;;;;44.00;10.55;;;;;;;;;;5050826;28;20382;-42
2023/02/27 13:53:29;;;;;;;30.55;9.07;;;;;;;;;;5050836;28;20539;-42
2023/02/27 13:56:15;;;;;;;36.33;9.55;;;;;;;;;;5050820;28;20100;-42
2023/02/27 13:58:43;;;;;;;33.50;9.90;;;;;;;;;;5050601;28;20041;-42
2023/02/27 14:01:15;;;;;;;35.38;9.68;;;;;;;;;;5050782;28;20067;-42
2023/02/27 14:03:42;;;;;;;31.75;9.40;;;;;;;;;;5050814;28;20131;-42
2023/02/27 14:06:11;;;;;;;35.78;9.48;;;;;;;;;;5050731;28;20060;-42
2023/02/27 14:08:47;;;;;;;34.95;8.60;;;;;;;;;;5050815;28;20062;-42
2023/02/27 14:11:22;;;;;;;38.65;9.20;;;;;;;;;;5050653;28;20550;-42
2023/02/27 14:13:49;;;;;;;35.42;9.25;;;;;;;;;;5050588;28;20475;-45
2023/02/27 14:16:39;;;;;;;32.95;8.90;;;;;;;;;;5050824;28;20428;-42
2023/02/27 14:19:18;;;;;;;36.28;8.40;;;;;;;;;;5042792;28;20033;-42
2023/02/27 14:22:00;;;;;;;28.15;7.88;;;;;;;;;;5050401;28;20067;-42
2023/02/27 14:24:40;;;;;;;27.20;7.83;;;;;;;;;;5050759;28;20132;-42
2023/02/27 14:27:19;;;;;;;34.35;8.20;;;;;;;;;;5050518;28;20534;-42
2023/02/27 14:29:47;;;;;;;34.90;8.18;;;;;;;;;;5050586;28;20071;-45
2023/02/27 14:32:22;;;;;;;32.33;8.50;;;;;;;;;;5050157;28;20061;-42
2023/02/27 14:34:51;;;;;;;31.00;8.27;;;;;;;;;;5050534;28;20033;-43
2023/02/27 14:37:22;;;;;;;29.00;7.53;;;;;;;;;;5051614;28;20032;-42
2023/02/27 14:39:50;;;;;;;29.27;7.00;;;;;;;;;;5054300;28;20112;-42